Time;durP1;ratioP1;P1;durP2;ratioP2;P2;SDS_P1;SDS_P2;PMS_P1;PMS_P2;Temp;Humidity;BMP_temperature;BMP_pressure;BME280_temperature;BME280_humidity;BME280_pressure;Samples;Min_cycle;Max_cycle;Signal;HPM_P1;HPM_P2
2022/07/06 00:04:43;;;;;;;5.32;1.30;;;;;;;;;;6142964;22;20102;-85
2022/07/06 00:10:19;;;;;;;5.25;1.40;;;;;;;;;;6253286;22;20027;-85
2022/07/06 00:13:04;;;;;;;8.40;1.20;;;;;;;;;;6252591;22;20050;-86
2022/07/06 00:25:37;;;;;;;7.15;1.40;;;;;;;;;;6280623;22;20062;-84
2022/07/06 00:44:28;;;;;;;8.32;1.10;;;;;;;;;;6223621;23;20099;-85
2022/07/06 00:55:02;;;;;;;5.47;1.85;;;;;;;;;;6282578;22;20042;-83
2022/07/06 01:12:08;;;;;;;6.05;1.20;;;;;;;;;;6286028;22;20058;-84
2022/07/06 01:32:30;;;;;;;5.83;1.00;;;;;;;;;;6280591;22;20034;-81
2022/07/06 01:51:11;;;;;;;5.38;1.50;;;;;;;;;;6269538;22;20034;-85
2022/07/06 02:04:23;;;;;;;7.50;1.67;;;;;;;;;;6267913;22;20014;-86
2022/07/06 02:06:55;;;;;;;6.55;1.20;;;;;;;;;;6280175;22;20024;-82
2022/07/06 02:09:25;;;;;;;7.18;1.30;;;;;;;;;;6282414;22;20038;-85
2022/07/06 02:11:54;;;;;;;4.60;1.23;;;;;;;;;;6281876;22;20482;-85
2022/07/06 02:14:29;;;;;;;3.55;0.90;;;;;;;;;;6226747;22;20024;-84
2022/07/06 02:17:01;;;;;;;7.95;1.23;;;;;;;;;;6253251;22;20126;-84
2022/07/06 02:19:28;;;;;;;10.23;1.95;;;;;;;;;;6279338;22;20081;-84
2022/07/06 02:22:04;;;;;;;8.55;1.48;;;;;;;;;;6252532;22;20049;-84
2022/07/06 02:24:46;;;;;;;6.22;1.05;;;;;;;;;;6254339;22;20301;-84
2022/07/06 02:36:36;;;;;;;7.15;1.08;;;;;;;;;;6282063;22;20027;-86
2022/07/06 02:39:02;;;;;;;8.52;1.23;;;;;;;;;;6281483;22;20011;-85
2022/07/06 02:41:50;;;;;;;9.20;1.50;;;;;;;;;;6255190;22;20050;-84
2022/07/06 02:44:32;;;;;;;5.60;1.30;;;;;;;;;;6280336;22;20058;-86
2022/07/06 02:50:40;;;;;;;6.13;1.30;;;;;;;;;;6285683;22;20045;-86
2022/07/06 02:53:25;;;;;;;9.40;0.97;;;;;;;;;;6254963;22;20027;-84
2022/07/06 02:55:52;;;;;;;4.53;1.08;;;;;;;;;;6232091;22;20261;-86
2022/07/06 02:58:18;;;;;;;8.82;1.00;;;;;;;;;;6282998;22;20108;-85
2022/07/06 03:00:48;;;;;;;2.63;0.80;;;;;;;;;;6256805;22;20043;-86
2022/07/06 03:10:37;;;;;;;8.68;1.80;;;;;;;;;;6218038;22;20023;-86
2022/07/06 03:13:03;;;;;;;4.30;0.90;;;;;;;;;;6225295;22;20024;-82
2022/07/06 03:15:48;;;;;;;6.43;1.00;;;;;;;;;;6230134;22;20015;-84
2022/07/06 03:18:37;;;;;;;3.03;0.98;;;;;;;;;;6282937;22;20352;-84
2022/07/06 03:21:04;;;;;;;11.10;1.35;;;;;;;;;;6252657;22;20077;-85
2022/07/06 03:26:34;;;;;;;4.60;1.08;;;;;;;;;;6279447;22;20014;-84
2022/07/06 03:29:07;;;;;;;5.07;1.00;;;;;;;;;;6282096;22;20019;-87
2022/07/06 03:31:33;;;;;;;11.48;1.48;;;;;;;;;;6251466;22;20023;-86
2022/07/06 03:34:08;;;;;;;7.28;1.02;;;;;;;;;;6253226;22;20074;-83
2022/07/06 03:53:03;;;;;;;;;;;;;;;;;;6283386;22;20534;-85
2022/07/06 03:59:11;;;;;;;4.53;0.90;;;;;;;;;;6279912;22;20035;-83
2022/07/06 04:04:47;;;;;;;6.60;2.03;;;;;;;;;;6274095;22;20096;-85
2022/07/06 04:07:19;;;;;;;5.88;2.05;;;;;;;;;;6283078;22;20034;-83
2022/07/06 04:10:04;;;;;;;9.05;1.25;;;;;;;;;;6235549;22;20027;-82
2022/07/06 04:12:43;;;;;;;3.58;1.10;;;;;;;;;;6236578;22;20023;-83
2022/07/06 04:15:19;;;;;;;7.82;1.00;;;;;;;;;;6292403;22;20031;-84
2022/07/06 04:18:00;;;;;;;8.07;1.10;;;;;;;;;;6286195;22;20024;-83
2022/07/06 04:20:27;;;;;;;5.47;1.30;;;;;;;;;;6256536;22;20465;-84
2022/07/06 04:23:05;;;;;;;6.57;1.00;;;;;;;;;;6228304;22;20024;-84
2022/07/06 04:28:19;;;;;;;;;;;;;;;;;;6277174;22;20035;-85
2022/07/06 04:31:29;;;;;;;6.18;1.48;;;;;;;;;;6252159;22;19921;-83
2022/07/06 04:37:59;;;;;;;6.82;0.98;;;;;;;;;;6281744;22;20367;-83
2022/07/06 04:40:25;;;;;;;8.38;1.88;;;;;;;;;;6279858;22;20392;-86
2022/07/06 04:43:01;;;;;;;10.82;1.52;;;;;;;;;;6230009;22;20654;-85
2022/07/06 04:45:30;;;;;;;3.10;1.48;;;;;;;;;;6253827;22;20039;-85
2022/07/06 04:47:58;;;;;;;5.53;1.17;;;;;;;;;;6282048;22;20029;-87
2022/07/06 04:50:24;;;;;;;4.88;0.90;;;;;;;;;;6280016;22;20023;-85
2022/07/06 04:52:50;;;;;;;4.20;1.23;;;;;;;;;;6229249;22;20039;-85
2022/07/06 05:02:02;;;;;;;7.47;1.10;;;14.10;99.90;;;;;;6280071;22;20023;-84
2022/07/06 05:04:43;;;;;;;7.10;1.20;;;;;;;;;;6224205;22;20043;-88
2022/07/06 05:07:30;;;;;;;5.60;1.08;;;;;;;;;;6276321;22;20115;-82
2022/07/06 05:13:05;;;;;;;6.40;0.93;;;;;;;;;;6281806;22;20053;-85
2022/07/06 05:15:35;;;;;;;3.90;0.93;;;;;;;;;;6279727;22;20054;-83
2022/07/06 05:21:29;;;;;;;9.98;1.40;;;;;;;;;;6280231;22;20026;-83
2022/07/06 05:23:55;;;;;;;6.50;1.10;;;;;;;;;;6231386;22;20023;-83
2022/07/06 05:29:54;;;;;;;7.30;1.45;;;;;;;;;;6311191;22;20014;-83
2022/07/06 05:38:19;;;;;;;7.72;1.30;;;;;;;;;;6156997;22;3538260;-85
2022/07/06 05:44:27;;;;;;;11.43;1.40;;;;;;;;;;6247491;23;20023;-84
2022/07/06 05:57:20;;;;;;;3.28;0.90;;;;;;;;;;6253009;22;20064;-86
2022/07/06 05:59:55;;;;;;;4.00;0.85;;;;;;;;;;6283111;22;20483;-85
2022/07/06 06:02:21;;;;;;;6.20;1.17;;;;;;;;;;6271476;22;20101;-80
2022/07/06 06:04:48;;;;;;;5.82;1.00;;;;;;;;;;6218712;22;20379;-80
2022/07/06 06:07:14;;;;;;;5.15;1.00;;;;;;;;;;6244053;22;20433;-79
2022/07/06 06:09:40;;;;;;;5.90;1.52;;;;;;;;;;6247397;22;20016;-80
2022/07/06 06:12:06;;;;;;;5.32;0.93;;;;;;;;;;6274468;22;20023;-81
2022/07/06 06:14:32;;;;;;;2.72;0.63;;;;;;;;;;6247032;22;20059;-80
2022/07/06 06:17:09;;;;;;;;;;;;;;;;;;;;;
2022/07/06 06:19:44;;;;;;;3.40;0.88;;;;;;;;;;6244315;22;20027;-79
2022/07/06 06:22:10;;;;;;;5.00;0.73;;;;;;;;;;6275277;22;20102;-80
2022/07/06 06:24:37;;;;;;;6.07;0.82;;;;;;;;;;6245974;22;20059;-80
2022/07/06 06:27:03;;;;;;;6.90;1.30;;;;;;;;;;6274035;22;20091;-80
2022/07/06 06:29:29;;;;;;;5.25;0.95;;;;;;;;;;6269632;22;20098;-81
2022/07/06 06:31:56;;;;;;;4.20;1.25;;;;;;;;;;6274171;22;20016;-81
2022/07/06 06:34:22;;;;;;;7.32;1.27;;;;;;;;;;6269414;22;20047;-81
2022/07/06 06:36:48;;;;;;;3.90;0.93;;;;;;;;;;6245393;22;20022;-80
2022/07/06 06:39:14;;;;;;;8.38;1.50;;;;;;;;;;6271528;22;20094;-80
2022/07/06 06:41:40;;;;;;;5.38;0.90;;;;;;;;;;6274431;22;20016;-81
2022/07/06 06:44:09;;;;;;;3.90;1.10;;;;;;;;;;6271326;22;20016;-80
2022/07/06 06:46:35;;;;;;;2.88;0.95;;;;;;;;;;6273431;22;20020;-80
2022/07/06 06:49:09;;;;;;;10.57;0.93;;;;;;;;;;6221900;22;20475;-82
2022/07/06 06:51:39;;;;;;;6.10;1.30;;;;;;;;;;6274211;22;20089;-80
2022/07/06 06:54:13;;;;;;;5.80;1.20;;;;;;;;;;6249258;22;20031;-79
2022/07/06 06:56:39;;;;;;;7.25;1.05;;;;;;;;;;6212580;23;20074;-80
2022/07/06 06:59:05;;;;;;;6.40;0.88;;;;;;;;;;6189772;23;20044;-79
2022/07/06 07:01:41;;;;;;;5.72;0.90;;;;;;;;;;6212942;23;20020;-82
2022/07/06 07:04:08;;;;;;;4.13;1.00;;;;;;;;;;6242684;23;20020;-81
2022/07/06 07:06:34;;;;;;;6.75;1.50;;;;;;;;;;6240378;23;20355;-81
2022/07/06 07:09:04;;;;;;;6.82;0.85;;;;;;;;;;6219483;23;20020;-79
2022/07/06 07:11:31;;;;;;;5.65;0.80;;;;;;;;;;6245503;23;20395;-81
2022/07/06 07:14:00;;;;;;;4.65;0.65;;;;;;;;;;6224154;23;20368;-81
2022/07/06 07:16:27;;;;;;;5.03;1.02;;;;;;;;;;6251850;23;20063;-81
2022/07/06 07:18:59;;;;;;;2.65;0.70;;;;;;;;;;6245740;23;20016;-80
2022/07/06 07:21:25;;;;;;;3.88;0.70;;;;;;;;;;6245539;23;20030;-81
2022/07/06 07:33:34;;;;;;;3.22;0.73;;;;;;;;;;6276989;22;19919;-81
2022/07/06 07:36:00;;;;;;;3.55;0.75;;;;;;;;;;6278086;22;20090;-81
2022/07/06 07:38:29;;;;;;;5.75;0.88;;;;;;;;;;6276288;22;20098;-81
2022/07/06 07:41:01;;;;;;;3.17;0.70;;;;;;;;;;6250704;22;20041;-81
2022/07/06 07:43:27;;;;;;;4.72;0.65;;;;;;;;;;6276222;22;20019;-79
2022/07/06 07:45:53;;;;;;;4.13;0.80;;;;;;;;;;6250357;22;20047;-82
2022/07/06 07:48:19;;;;;;;4.97;1.02;;;;;;;;;;6250028;22;20030;-81
2022/07/06 07:50:52;;;;;;;4.20;0.63;;;;;;;;;;6276994;22;20030;-81
2022/07/06 07:53:18;;;;;;;4.47;1.08;;;;;;;;;;6277073;22;20024;-80
2022/07/06 07:55:56;;;;;;;4.18;0.70;;;;;;;;;;6277524;22;20024;-81
2022/07/06 07:58:22;;;;;;;2.78;0.60;;;;;;;;;;6278430;22;20020;-81
2022/07/06 08:00:48;;;;;;;2.45;0.77;;;;;;;;;;6199392;22;20343;-82
2022/07/06 08:03:14;;;;;;;7.55;0.63;;;;;;;;;;6278162;22;20081;-80
2022/07/06 08:05:40;;;;;;;6.22;0.68;;;;;;;;;;6276771;22;20015;-82
2022/07/06 08:08:06;;;;;;;7.00;0.90;;;;;;;;;;6278624;22;20020;-82
2022/07/06 08:10:44;;;;;;;3.75;0.50;;;;;;;;;;6248695;22;20047;-81
2022/07/06 08:13:14;;;;;;;2.80;0.57;;;;;;;;;;6251202;22;20065;-82
2022/07/06 08:15:42;;;;;;;3.42;0.80;;;;;;;;;;6281038;22;20020;-82
2022/07/06 08:18:09;;;;;;;2.67;0.70;;;;;;;;;;6251777;22;20424;-81
2022/07/06 08:20:38;;;;;;;3.00;0.80;;;;;;;;;;6223941;22;20030;-82
2022/07/06 08:23:04;;;;;;;4.43;0.50;;;;;;;;;;6277643;22;20091;-81
2022/07/06 08:25:40;;;;;;;7.68;1.13;;;;;;;;;;6250630;22;20024;-81
2022/07/06 08:28:09;;;;;;;5.32;0.80;;;;;;;;;;6223330;22;20035;-81
2022/07/06 08:30:35;;;;;;;3.72;0.85;;;;;;;;;;6225110;22;20059;-82
2022/07/06 08:33:10;;;;;;;4.10;0.80;;;;;;;;;;6276104;22;20456;-80
2022/07/06 08:35:42;;;;;;;3.25;0.98;;;;;;;;;;6251993;22;20038;-81
2022/07/06 08:38:11;;;;;;;6.70;1.20;;;;;;;;;;6275672;22;20079;-81
2022/07/06 08:40:40;;;;;;;5.22;0.85;;;;;;;;;;6277096;22;20097;-80
2022/07/06 08:43:06;;;;;;;5.63;0.77;;;;;;;;;;6249986;22;20034;-81
2022/07/06 08:45:34;;;;;;;4.78;0.82;;;;;;;;;;6249515;22;20047;-81
2022/07/06 08:48:06;;;;;;;4.85;1.00;;;;;;;;;;6278651;22;20039;-81
2022/07/06 08:50:34;;;;;;;5.25;0.93;;;;;;;;;;6277939;22;20019;-80
2022/07/06 08:53:00;;;;;;;5.40;0.82;;;;;;;;;;6277793;22;20031;-82
2022/07/06 08:55:33;;;;;;;5.15;1.00;;;;;;;;;;6275692;22;20020;-81
2022/07/06 08:58:08;;;;;;;12.88;2.17;;;;;;;;;;6277825;22;20398;-81
2022/07/06 09:00:34;;;;;;;6.53;0.75;;;;;;;;;;6250202;22;20503;-82
2022/07/06 09:03:01;;;;;;;2.13;0.60;;;;;;;;;;6250465;22;20020;-81
2022/07/06 09:05:28;;;;;;;6.57;1.00;;;;;;;;;;6277028;22;20018;-81
2022/07/06 09:07:54;;;;;;;5.60;0.77;;;;;;;;;;6250584;22;20042;-81
2022/07/06 09:10:23;;;;;;;5.82;0.82;;;;;;;;;;6276097;22;20019;-83
2022/07/06 09:12:50;;;;;;;5.43;0.70;;;;;;;;;;6249789;22;20020;-82
2022/07/06 09:25:15;;;;;;;5.82;0.75;;;;;;;;;;6159891;23;20056;-80
2022/07/06 09:27:57;;;;;;;3.35;0.80;;;;;;;;;;6160603;23;20028;-81
2022/07/06 09:30:27;;;;;;;3.55;0.57;;;;;;;;;;6186815;23;20124;-80
2022/07/06 09:32:57;;;;;;;1.75;0.80;;;;;;;;;;6159991;23;20025;-81
2022/07/06 09:36:00;;;;;;;3.25;0.82;;;;;;;;;;6159973;23;20032;-81
2022/07/06 09:38:32;;;;;;;6.00;0.90;;;;;;;;;;6171422;23;20104;-81
2022/07/06 09:41:07;;;;;;;3.75;0.65;;;;;;;;;;6159369;23;20029;-81
2022/07/06 09:43:35;;;;;;;9.80;1.00;;;;;;;;;;6187361;23;20052;-81
2022/07/06 09:46:01;;;;;;;3.50;0.55;;;;;;;;;;6185517;23;20024;-79
2022/07/06 09:48:28;;;;;;;2.38;0.47;;;;;;;;;;6180419;23;20025;-79
2022/07/06 09:50:55;;;;;;;2.42;0.70;;;;;;;;;;6178549;23;20023;-78
2022/07/06 09:53:22;;;;;;;5.82;0.80;;;;;;;;;;6179205;23;20112;-78
2022/07/06 09:55:49;;;;;;;9.80;0.90;;;;;;;;;;6179605;23;20017;-78
2022/07/06 09:58:15;;;;;;;1.70;0.60;;;;;;;;;;6178459;23;20028;-78
2022/07/06 10:00:42;;;;;;;4.55;0.80;;;;;;;;;;6180042;23;20021;-78
2022/07/06 10:03:09;;;;;;;1.45;0.57;;;;;;;;;;6128160;23;20052;-79
2022/07/06 10:05:39;;;;;;;2.42;0.90;;;;;;;;;;6182201;23;20377;-79
2022/07/06 10:08:05;;;;;;;5.18;0.82;;;;;;;;;;6183425;23;20025;-79
2022/07/06 10:10:32;;;;;;;5.80;1.05;;;;;;;;;;6159703;23;20029;-79
2022/07/06 10:13:00;;;;;;;2.88;0.60;;;;;;;;;;6191613;23;20035;-79
2022/07/06 10:15:27;;;;;;;2.42;0.88;;;;;;;;;;6191194;23;20062;-78
2022/07/06 10:17:53;;;;;;;6.43;1.10;;;;;;;;;;6171911;23;20035;-78
2022/07/06 10:20:20;;;;;;;4.35;0.75;;;;;;;;;;6189783;23;20350;-79
2022/07/06 10:22:48;;;;;;;3.00;0.63;;;;;;;;;;6184211;23;20021;-77
2022/07/06 10:25:17;;;;;;;6.05;0.88;;;;;;;;;;6181197;23;20373;-78
2022/07/06 10:27:45;;;;;;;6.07;0.82;;;;;;;;;;6205658;23;20017;-79
2022/07/06 10:30:11;;;;;;;3.55;0.98;;;;;;;;;;6180844;23;20017;-78
2022/07/06 10:32:39;;;;;;;4.68;1.00;;;;;;;;;;6179404;23;20060;-80
2022/07/06 10:35:06;;;;;;;7.30;0.70;;;;;;;;;;6204435;23;20139;-79
2022/07/06 10:37:33;;;;;;;4.30;0.77;;;;;;;;;;6179628;23;20036;-79
2022/07/06 10:42:49;;;;;;;4.10;0.70;;;;;;;;;;6181045;23;20024;-79
2022/07/06 10:45:16;;;;;;;3.08;0.90;;;;;;;;;;6206378;23;20021;-79
2022/07/06 10:47:42;;;;;;;6.85;1.23;;;;;;;;;;6181815;23;20013;-79
2022/07/06 10:50:09;;;;;;;4.57;1.00;;;;;;;;;;6205341;23;20025;-79
2022/07/06 10:52:49;;;;;;;3.20;0.90;;;;;;;;;;6184378;23;20516;-79
2022/07/06 10:55:31;;;;;;;2.42;0.70;;;;;;;;;;6181518;23;20087;-79
2022/07/06 10:57:57;;;;;;;2.92;0.95;;;;;;;;;;6181498;23;20320;-79
2022/07/06 11:00:23;;;;;;;4.63;0.88;;;;;;;;;;6182858;23;20024;-79
2022/07/06 11:02:50;;;;;;;2.95;0.90;;;;;;;;;;6181602;23;20025;-80
2022/07/06 11:05:35;;;;;;;5.13;1.20;;;;;;;;;;6155974;23;20345;-78
2022/07/06 11:08:02;;;;;;;9.15;1.20;;;;;;;;;;6181082;23;20024;-77
2022/07/06 11:10:28;;;;;;;3.33;0.80;;;;;;;;;;6186857;23;20337;-79
2022/07/06 11:13:03;;;;;;;3.92;0.95;;;;;;;;;;6192386;23;20032;-78
2022/07/06 11:15:48;;;;;;;3.95;1.08;;;;;;;;;;6186760;23;20111;-78
2022/07/06 11:18:14;;;;;;;4.60;1.02;;;;;;;;;;6205220;23;20025;-78
2022/07/06 11:20:40;;;;;;;7.63;0.90;;;;;;;;;;6180899;23;20291;-79
2022/07/06 11:23:06;;;;;;;5.55;1.10;;;;;;;;;;6155578;23;20029;-78
2022/07/06 11:25:32;;;;;;;5.88;1.45;;;;;;;;;;6154470;23;20092;-78
2022/07/06 11:27:58;;;;;;;5.25;0.85;;;;;;;;;;6188963;23;20020;-78
2022/07/06 11:30:25;;;;;;;3.30;1.02;;;;;;;;;;6211090;23;20071;-79
2022/07/06 11:32:51;;;;;;;2.03;0.60;;;;;;;;;;6211386;23;20028;-79
2022/07/06 11:35:23;;;;;;;4.28;0.73;;;;;;;;;;6211541;23;20051;-79
2022/07/06 11:37:49;;;;;;;5.25;0.90;;;;;;;;;;6235281;22;20110;-78
2022/07/06 11:40:18;;;;;;;3.72;0.70;;;;;;;;;;6211958;23;20020;-78
2022/07/06 11:42:54;;;;;;;4.72;1.10;;;;;;;;;;6183237;23;20352;-79
2022/07/06 11:45:27;;;;;;;4.25;0.70;;;;;;;;;;6234821;22;20096;-78
2022/07/06 11:48:09;;;;;;;6.82;1.30;;;;;;;;;;6211889;23;20379;-78
2022/07/06 11:50:35;;;;;;;6.65;1.10;;;;;;;;;;6184732;23;20024;-79
2022/07/06 11:53:01;;;;;;;4.70;0.73;;;;;;;;;;6213361;23;20075;-80
2022/07/06 11:55:29;;;;;;;4.68;0.80;;;;;;;;;;6210647;23;20436;-79
2022/07/06 11:57:58;;;;;;;2.17;0.70;;;;;;;;;;6212176;23;20021;-79
2022/07/06 12:00:30;;;;;;;4.50;0.93;;;;;;;;;;6209461;23;20012;-79
2022/07/06 12:03:08;;;;;;;4.82;0.70;;;;;;;;;;6235807;22;20418;-79
2022/07/06 12:05:35;;;;;;;6.43;0.77;;;;;;;;;;6211533;23;20020;-78
2022/07/06 12:08:08;;;;;;;3.67;0.80;;;;;;;;;;6211770;23;20016;-78
2022/07/06 12:10:35;;;;;;;2.00;0.60;;;;;;;;;;6211888;23;20127;-78
2022/07/06 12:13:05;;;;;;;2.28;0.70;;;;;;;;;;6211232;23;20025;-78
2022/07/06 12:15:31;;;;;;;6.22;0.70;;;;;;;;;;6211758;23;20139;-77
2022/07/06 12:17:57;;;;;;;6.35;1.17;;;;;;;;;;6210200;23;20016;-80
2022/07/06 12:20:25;;;;;;;3.00;0.85;;;;;;;;;;6211922;23;20475;-79
2022/07/06 12:23:01;;;;;;;3.25;1.08;;;;;;;;;;6210631;23;20028;-78
2022/07/06 12:25:34;;;;;;;3.50;0.82;;;;;;;;;;6209480;23;20031;-78
2022/07/06 12:28:00;;;;;;;4.70;1.13;;;;;;;;;;6210533;23;20025;-78
2022/07/06 12:30:26;;;;;;;4.45;0.73;;;;;;;;;;6208890;23;20021;-78
2022/07/06 12:33:11;;;;;;;5.57;0.68;;;;;;;;;;6210878;23;20028;-78
2022/07/06 12:35:37;;;;;;;5.07;1.02;;;;;;;;;;6182752;23;20095;-80
2022/07/06 12:38:06;;;;;;;2.38;0.60;;;;;;;;;;6237541;22;20024;-78
2022/07/06 12:40:32;;;;;;;2.65;0.73;;;;;;;;;;6210452;23;20027;-80
2022/07/06 12:42:58;;;;;;;5.03;0.75;;;;;;;;;;6210958;23;20044;-79
2022/07/06 12:45:28;;;;;;;3.55;0.98;;;;;;;;;;6211610;23;20025;-79
2022/07/06 12:48:01;;;;;;;2.40;0.70;;;;;;;;;;6209417;23;20020;-81
2022/07/06 12:50:34;;;;;;;3.30;0.97;;;;;;;;;;6211480;23;20021;-80
2022/07/06 12:53:00;;;;;;;3.05;1.02;;;;;;;;;;6209660;23;20770;-79
2022/07/06 12:55:27;;;;;;;3.85;0.65;;;;;;;;;;6211470;23;20020;-77
2022/07/06 12:57:54;;;;;;;3.47;0.73;;;;;;;;;;6184173;23;20016;-79
2022/07/06 13:00:21;;;;;;;2.35;0.80;;;;;;;;;;6209795;23;20352;-79
2022/07/06 13:02:48;;;;;;;1.83;0.80;;;;;;;;;;6214795;23;20031;-78
2022/07/06 13:05:16;;;;;;;2.58;0.90;;;;;;;;;;6214227;23;20036;-79
2022/07/06 13:07:46;;;;;;;1.73;0.68;;;;;;;;;;6217636;23;20555;-77
2022/07/06 13:10:13;;;;;;;4.13;0.88;;;;;;;;;;6233491;22;20139;-78
2022/07/06 13:12:40;;;;;;;2.42;0.73;;;;;;;;;;6182711;23;20650;-79
2022/07/06 13:15:07;;;;;;;2.10;0.88;;;;;;;;;;6208387;23;20028;-80
2022/07/06 13:17:33;;;;;;;4.65;0.68;;;;;;;;;;6207862;23;20618;-78
2022/07/06 13:20:00;;;;;;;2.38;0.70;;;;;;;;;;6210201;23;20020;-78
2022/07/06 13:22:26;;;;;;;5.15;0.88;;;;;;;;;;6208245;23;20418;-78
2022/07/06 13:24:52;;;;;;;5.47;1.10;;;;;;;;;;6208991;23;20031;-77
2022/07/06 13:27:18;;;;;;;2.55;0.68;;;;;;;;;;6206416;23;20020;-77
2022/07/06 13:29:45;;;;;;;2.90;0.73;;;;;;;;;;6181891;23;20013;-78
2022/07/06 13:32:11;;;;;;;3.33;0.85;;;;;;;;;;6207547;23;20024;-77
2022/07/06 13:34:37;;;;;;;2.83;0.80;;;;;;;;;;6209160;23;20039;-78
2022/07/06 13:37:03;;;;;;;4.13;1.00;;;;;;;;;;6208622;23;20349;-78
2022/07/06 13:39:29;;;;;;;4.82;0.60;;;;;;;;;;6178012;23;20449;-78
2022/07/06 13:41:56;;;;;;;3.90;0.70;;;;;;;;;;6208725;23;20056;-79
2022/07/06 13:44:22;;;;;;;5.47;0.90;;;;;;;;;;6206032;23;20063;-81
2022/07/06 13:46:49;;;;;;;4.85;0.88;;;;;;;;;;6208150;23;20051;-79
2022/07/06 13:49:15;;;;;;;6.22;0.80;;;;;;;;;;6205868;23;20021;-80
2022/07/06 13:51:41;;;;;;;3.40;0.75;;;;;;;;;;6234005;22;20073;-78
2022/07/06 13:54:07;;;;;;;3.55;0.90;;;;;;;;;;6207256;23;20070;-80
2022/07/06 13:56:33;;;;;;;3.97;0.90;;;;;;;;;;6212942;23;20020;-80
2022/07/06 13:58:59;;;;;;;3.15;0.80;;;;;;;;;;6208880;23;20409;-78
2022/07/06 14:01:26;;;;;;;2.50;0.85;;;;;;;;;;6163719;23;20409;-76
2022/07/06 14:03:52;;;;;;;6.25;0.93;;;;;;;;;;6214794;23;20437;-78
2022/07/06 14:06:25;;;;;;;4.55;0.90;;;;;;;;;;6212947;23;20026;-79
2022/07/06 14:08:51;;;;;;;5.22;1.20;;;;;;;;;;6210378;23;20095;-78
2022/07/06 14:11:18;;;;;;;6.32;0.70;;;;;;;;;;6210701;23;20027;-78
2022/07/06 14:13:44;;;;;;;5.70;1.13;;;;;;;;;;6213591;23;20025;-78
2022/07/06 14:16:10;;;;;;;4.40;0.80;;;;;;;;;;6212676;23;20024;-77
2022/07/06 14:18:36;;;;;;;2.20;1.00;;;;;;;;;;6221478;23;20047;-77
2022/07/06 14:21:03;;;;;;;3.30;0.77;;;;;;;;;;6222051;23;20035;-78
2022/07/06 14:23:30;;;;;;;1.67;0.93;;;;;;;;;;6198347;23;20060;-79
2022/07/06 14:25:59;;;;;;;2.67;0.65;;;;;;;;;;6214203;23;20032;-79
2022/07/06 14:28:25;;;;;;;7.50;2.08;;;;;;;;;;6182946;23;20055;-81
2022/07/06 14:30:51;;;;;;;3.55;0.90;;;;;;;;;;6209447;23;20028;-80
2022/07/06 14:33:18;;;;;;;0.80;0.60;;;;;;;;;;6207149;23;20024;-77
2022/07/06 14:35:49;;;;;;;1.73;0.65;;;;;;;;;;6210933;23;20036;-79
2022/07/06 14:38:15;;;;;;;3.85;0.73;;;;;;;;;;6204173;23;20021;-79
2022/07/06 14:40:42;;;;;;;3.20;0.75;;;;;;;;;;6207065;23;20496;-79
2022/07/06 14:43:08;;;;;;;4.57;0.95;;;;;;;;;;6206109;23;20044;-79
2022/07/06 14:45:34;;;;;;;2.05;0.80;;;;;;;;;;6180256;23;20082;-79
2022/07/06 14:48:05;;;;;;;3.03;1.00;;;;;;;;;;6180790;23;20021;-79
2022/07/06 14:50:34;;;;;;;4.03;1.75;;;;;;;;;;6229377;22;20043;-79
2022/07/06 14:53:01;;;;;;;2.90;1.23;;;;;;;;;;6182530;23;20024;-79
2022/07/06 14:55:27;;;;;;;2.47;1.08;;;;;;;;;;6207775;23;20016;-80
2022/07/06 14:58:04;;;;;;;4.93;1.17;;;;;;;;;;6212788;23;20048;-80
2022/07/06 15:00:35;;;;;;;3.55;1.30;;;;;;;;;;6217997;23;20103;-78
2022/07/06 15:03:02;;;;;;;3.67;1.35;;;;;;;;;;6213433;23;20111;-79
2022/07/06 15:05:29;;;;;;;4.55;1.35;;;;;;;;;;6203123;23;20020;-79
2022/07/06 15:07:55;;;;;;;3.40;1.67;;;;;;;;;;6206443;23;20020;-75
2022/07/06 15:10:24;;;;;;;3.70;1.02;;;;;;;;;;6202655;23;20016;-76
2022/07/06 15:12:50;;;;;;;3.35;1.10;;;;;;;;;;6179703;23;20082;-76
2022/07/06 15:15:20;;;;;;;5.80;1.08;;;;;;;;;;6178119;23;20029;-80
2022/07/06 15:17:46;;;;;;;3.47;1.10;;;;;;;;;;6154698;23;20033;-78
2022/07/06 15:20:13;;;;;;;3.85;1.33;;;;;;;;;;6205181;23;20099;-79
2022/07/06 15:22:39;;;;;;;9.65;1.75;;;;;;;;;;6205313;23;20079;-78
2022/07/06 15:25:05;;;;;;;6.03;1.60;;;;;;;;;;6206533;23;20067;-77
2022/07/06 15:27:31;;;;;;;3.95;1.70;;;;;;;;;;6204471;23;20468;-77
2022/07/06 15:29:57;;;;;;;5.45;1.92;;;;;;;;;;6206723;23;20401;-77
2022/07/06 15:32:24;;;;;;;4.45;1.95;;;;;;;;;;6202745;23;20017;-76
2022/07/06 15:34:50;;;;;;;4.78;1.75;;;;;;;;;;6206553;23;20435;-78
2022/07/06 15:37:16;;;;;;;5.30;1.90;;;;;;;;;;6204917;23;20024;-79
2022/07/06 15:39:42;;;;;;;7.15;1.60;;;;;;;;;;6207369;23;20020;-77
2022/07/06 15:42:09;;;;;;;6.93;1.90;;;;;;;;;;6208243;23;20016;-78
2022/07/06 15:44:35;;;;;;;3.13;1.65;;;;;;;;;;6183921;23;20388;-79
2022/07/06 15:47:06;;;;;;;5.93;2.33;;;;;;;;;;6209602;23;20020;-78
2022/07/06 15:49:32;;;;;;;3.28;1.30;;;;;;;;;;6233975;22;20247;-78
2022/07/06 15:52:02;;;;;;;2.63;1.30;;;;;;;;;;6209143;23;20020;-78
2022/07/06 15:54:28;;;;;;;6.97;1.95;;;;;;;;;;6207071;23;20024;-77
2022/07/06 15:56:54;;;;;;;4.38;1.30;;;;;;;;;;6181848;23;20074;-76
2022/07/06 15:59:20;;;;;;;7.90;1.70;;;;;;;;;;6205464;23;20017;-79
2022/07/06 16:01:46;;;;;;;6.50;1.75;;;;;;;;;;6203390;23;20058;-77
2022/07/06 16:04:12;;;;;;;5.85;1.67;;;;;;;;;;6179098;23;20025;-77
2022/07/06 16:06:38;;;;;;;6.43;1.80;;;;;;;;;;6205965;23;20021;-77
2022/07/06 16:09:04;;;;;;;5.40;1.90;;;;;;;;;;6208170;23;20549;-78
2022/07/06 16:11:43;;;;;;;4.93;1.92;;;;;;;;;;6205836;23;20112;-78
2022/07/06 16:14:09;;;;;;;5.38;2.70;;;;;;;;;;6234486;22;20024;-79
2022/07/06 16:16:37;;;;;;;8.75;3.20;;;;;;;;;;6211358;23;20348;-79
2022/07/06 16:19:04;;;;;;;6.65;3.13;;;;;;;;;;6208430;23;20048;-77
2022/07/06 16:21:30;;;;;;;7.57;3.92;;;;;;;;;;6180363;23;20099;-78
2022/07/06 16:23:56;;;;;;;6.60;3.63;;;;;;;;;;6213695;23;20017;-77
2022/07/06 16:26:23;;;;;;;7.25;2.92;;;;;;;;;;6208564;23;20020;-76
2022/07/06 16:28:50;;;;;;;6.20;3.22;;;;;;;;;;6181368;23;20408;-80
2022/07/06 16:31:16;;;;;;;6.30;3.20;;;;;;;;;;6210247;23;20017;-79
2022/07/06 16:33:42;;;;;;;6.63;3.03;;;;;;;;;;6208936;23;20025;-79
2022/07/06 16:36:10;;;;;;;7.40;3.83;;;;;;;;;;6209569;23;20062;-80
2022/07/06 16:38:37;;;;;;;7.72;3.47;;;;;;;;;;6207370;23;20016;-79
2022/07/06 16:41:03;;;;;;;5.93;3.13;;;;;;;;;;6209660;23;20020;-77
2022/07/06 16:43:29;;;;;;;6.82;3.00;;;;;;;;;;6207608;23;20020;-79
2022/07/06 16:45:56;;;;;;;5.60;2.88;;;;;;;;;;6212482;23;20021;-79
2022/07/06 16:48:22;;;;;;;3.70;2.80;;;;;;;;;;6210064;23;20016;-79
2022/07/06 16:51:01;;;;;;;6.45;3.38;;;;;;;;;;6219083;23;20021;-78
2022/07/06 16:53:40;;;;;;;6.85;3.70;;;;;;;;;;6243672;22;20028;-79
2022/07/06 16:56:07;;;;;;;8.55;3.22;;;;;;;;;;6193253;23;20024;-78
2022/07/06 16:58:33;;;;;;;5.13;3.38;;;;;;;;;;6209277;23;20295;-79
2022/07/06 17:01:02;;;;;;;5.95;3.85;;;;;;;;;;6206690;23;20043;-77
2022/07/06 17:03:28;;;;;;;5.88;3.63;;;;;;;;;;6209238;23;20044;-78
2022/07/06 17:05:54;;;;;;;10.63;3.85;;;;;;;;;;6207288;23;20062;-77
2022/07/06 17:08:20;;;;;;;6.90;3.65;;;;;;;;;;6209375;23;20087;-80
2022/07/06 17:10:53;;;;;;;4.65;3.72;;;;;;;;;;6209176;23;20092;-78
2022/07/06 17:13:25;;;;;;;6.88;3.92;;;;;;;;;;6209624;23;20023;-79
2022/07/06 17:15:51;;;;;;;8.35;4.60;;;;;;;;;;6206317;23;20012;-77
2022/07/06 17:18:17;;;;;;;9.48;4.43;;;;;;;;;;6210585;23;20028;-77
2022/07/06 17:20:46;;;;;;;5.75;3.88;;;;;;;;;;6206598;23;20062;-78
2022/07/06 17:23:18;;;;;;;5.50;4.22;;;;;;;;;;6210700;23;20021;-77
2022/07/06 17:25:44;;;;;;;8.30;4.40;;;;;;;;;;6214868;23;20357;-77
2022/07/06 17:28:10;;;;;;;9.25;5.00;;;;;;;;;;6216336;23;20063;-78
2022/07/06 17:30:36;;;;;;;6.63;4.22;;;;;;;;;;6165618;23;20025;-80
2022/07/06 17:33:04;;;;;;;8.88;4.72;;;;;;;;;;6240815;22;20220;-80
2022/07/06 17:35:31;;;;;;;8.10;4.85;;;;;;;;;;6183287;23;20024;-80
2022/07/06 17:37:57;;;;;;;8.48;5.22;;;;;;;;;;6209839;23;20447;-80
2022/07/06 17:40:28;;;;;;;7.05;5.28;;;;;;;;;;6180501;23;20023;-80
2022/07/06 17:42:57;;;;;;;6.25;5.65;;;;;;;;;;6207153;23;20020;-80
2022/07/06 17:45:23;;;;;;;9.63;5.78;;;;;;;;;;6207623;23;20031;-80
2022/07/06 17:47:49;;;;;;;12.63;6.18;;;;;;;;;;6229010;22;20023;-80
2022/07/06 17:52:49;;;;;;;12.35;6.63;;;;;;;;;;6271204;22;20474;-81
2022/07/06 17:55:47;;;;;;;8.43;6.00;;;;;;;;;;6268492;22;20640;31
2022/07/06 17:58:14;;;;;;;8.45;6.45;;;;;;;;;;6207085;23;20031;-81
2022/07/06 18:00:40;;;;;;;11.60;7.28;;;;;;;;;;6234520;23;20023;-81
2022/07/06 18:06:12;;;;;;;12.88;7.60;;;;;;;;;;6232195;23;20024;-82
2022/07/06 18:09:05;;;;;;;16.85;8.73;;;;;;;;;;6238137;23;20020;-80
2022/07/06 18:11:56;;;;;;;12.00;8.55;;;;;;;;;;6233706;23;20027;-80
2022/07/06 18:14:22;;;;;;;16.35;8.48;;;;;;;;;;6210905;23;20024;-81
2022/07/06 18:20:26;;;;;;;14.57;9.07;;;;;;;;;;6093141;23;20080;-82
2022/07/06 18:22:52;;;;;;;11.88;8.63;;;;;;;;;;6230110;23;20031;-79
2022/07/06 18:25:31;;;;;;;14.80;8.60;;;;;;;;;;6211325;23;20018;-80
2022/07/06 18:28:00;;;;;;;13.52;8.07;;;;;;;;;;6210895;23;20029;-80
2022/07/06 18:30:26;;;;;;;11.75;8.55;;;;;;;;;;6238505;23;20016;-81
2022/07/06 18:33:04;;;;;;;13.00;8.80;;;;;;;;;;6234156;23;20020;-81
2022/07/06 18:35:30;;;;;;;17.98;10.85;;;;;;;;;;6234392;23;20023;-80
2022/07/06 18:37:59;;;;;;;13.45;10.32;;;;;;;;;;6235852;23;20349;-78